sensor_id;sensor_type;location;lat;lon;timestamp;P1;durP1;ratioP1;P2;durP2;ratioP2
68310;SDS011;55157;51.036;17.058;2023-11-19T00:01:25;39.13;;;25.50;;
68310;SDS011;55157;51.036;17.058;2023-11-19T00:03:50;37.85;;;25.70;;
68310;SDS011;55157;51.036;17.058;2023-11-19T00:06:15;46.13;;;26.23;;
68310;SDS011;55157;51.036;17.058;2023-11-19T00:08:40;39.10;;;24.88;;
68310;SDS011;55157;51.036;17.058;2023-11-19T00:11:06;47.10;;;28.70;;
68310;SDS011;55157;51.036;17.058;2023-11-19T00:13:31;36.03;;;26.00;;
68310;SDS011;55157;51.036;17.058;2023-11-19T00:15:57;41.70;;;27.15;;
68310;SDS011;55157;51.036;17.058;2023-11-19T00:18:23;40.85;;;27.23;;
68310;SDS011;55157;51.036;17.058;2023-11-19T00:20:48;36.58;;;26.00;;
68310;SDS011;55157;51.036;17.058;2023-11-19T00:23:13;41.72;;;25.17;;
68310;SDS011;55157;51.036;17.058;2023-11-19T00:25:38;39.50;;;25.80;;
68310;SDS011;55157;51.036;17.058;2023-11-19T00:28:04;35.75;;;24.80;;
68310;SDS011;55157;51.036;17.058;2023-11-19T00:30:29;38.72;;;25.50;;
68310;SDS011;55157;51.036;17.058;2023-11-19T00:32:55;41.47;;;27.42;;
68310;SDS011;55157;51.036;17.058;2023-11-19T00:35:21;45.70;;;30.95;;
68310;SDS011;55157;51.036;17.058;2023-11-19T00:37:46;46.60;;;29.75;;
68310;SDS011;55157;51.036;17.058;2023-11-19T00:40:11;48.95;;;29.60;;
68310;SDS011;55157;51.036;17.058;2023-11-19T00:42:37;46.85;;;29.75;;
68310;SDS011;55157;51.036;17.058;2023-11-19T00:45:02;52.17;;;31.17;;
68310;SDS011;55157;51.036;17.058;2023-11-19T00:47:27;44.22;;;29.48;;
68310;SDS011;55157;51.036;17.058;2023-11-19T00:49:54;53.17;;;30.17;;
68310;SDS011;55157;51.036;17.058;2023-11-19T00:52:19;49.40;;;32.15;;
68310;SDS011;55157;51.036;17.058;2023-11-19T00:54:45;54.60;;;31.95;;
68310;SDS011;55157;51.036;17.058;2023-11-19T00:57:10;49.40;;;31.90;;
68310;SDS011;55157;51.036;17.058;2023-11-19T00:59:35;49.67;;;31.30;;
68310;SDS011;55157;51.036;17.058;2023-11-19T01:02:00;56.47;;;30.52;;
68310;SDS011;55157;51.036;17.058;2023-11-19T01:04:26;53.25;;;31.80;;
68310;SDS011;55157;51.036;17.058;2023-11-19T01:06:52;53.45;;;30.00;;
68310;SDS011;55157;51.036;17.058;2023-11-19T01:09:18;54.47;;;34.10;;
68310;SDS011;55157;51.036;17.058;2023-11-19T01:11:43;58.33;;;32.55;;
68310;SDS011;55157;51.036;17.058;2023-11-19T01:14:08;46.60;;;31.05;;
68310;SDS011;55157;51.036;17.058;2023-11-19T01:16:33;53.08;;;32.95;;
68310;SDS011;55157;51.036;17.058;2023-11-19T01:18:58;59.17;;;35.38;;
68310;SDS011;55157;51.036;17.058;2023-11-19T01:21:24;51.10;;;33.85;;
68310;SDS011;55157;51.036;17.058;2023-11-19T01:23:50;52.40;;;31.90;;
68310;SDS011;55157;51.036;17.058;2023-11-19T01:26:16;57.42;;;32.42;;
68310;SDS011;55157;51.036;17.058;2023-11-19T01:28:41;53.33;;;32.78;;
68310;SDS011;55157;51.036;17.058;2023-11-19T01:31:06;55.20;;;34.58;;
68310;SDS011;55157;51.036;17.058;2023-11-19T01:33:31;58.15;;;35.33;;
68310;SDS011;55157;51.036;17.058;2023-11-19T01:35:57;49.15;;;32.55;;
68310;SDS011;55157;51.036;17.058;2023-11-19T01:38:22;55.25;;;33.22;;
68310;SDS011;55157;51.036;17.058;2023-11-19T01:40:48;50.05;;;30.20;;
68310;SDS011;55157;51.036;17.058;2023-11-19T01:45:54;61.97;;;34.70;;
68310;SDS011;55157;51.036;17.058;2023-11-19T01:48:19;55.95;;;31.35;;
68310;SDS011;55157;51.036;17.058;2023-11-19T01:50:44;55.13;;;32.05;;
68310;SDS011;55157;51.036;17.058;2023-11-19T01:53:09;52.55;;;30.17;;
68310;SDS011;55157;51.036;17.058;2023-11-19T01:55:35;46.92;;;29.88;;
68310;SDS011;55157;51.036;17.058;2023-11-19T01:58:01;50.75;;;31.95;;
68310;SDS011;55157;51.036;17.058;2023-11-19T02:00:27;55.25;;;32.00;;
68310;SDS011;55157;51.036;17.058;2023-11-19T02:02:52;59.67;;;33.65;;
68310;SDS011;55157;51.036;17.058;2023-11-19T02:05:17;66.07;;;35.22;;
68310;SDS011;55157;51.036;17.058;2023-11-19T02:07:43;70.43;;;37.47;;
68310;SDS011;55157;51.036;17.058;2023-11-19T02:10:08;59.22;;;35.42;;
68310;SDS011;55157;51.036;17.058;2023-11-19T02:12:33;62.40;;;33.20;;
68310;SDS011;55157;51.036;17.058;2023-11-19T02:15:00;50.60;;;32.30;;
68310;SDS011;55157;51.036;17.058;2023-11-19T02:17:26;54.85;;;32.22;;
68310;SDS011;55157;51.036;17.058;2023-11-19T02:19:51;55.30;;;32.83;;
68310;SDS011;55157;51.036;17.058;2023-11-19T02:22:16;66.20;;;36.08;;
68310;SDS011;55157;51.036;17.058;2023-11-19T02:24:42;66.78;;;35.05;;
68310;SDS011;55157;51.036;17.058;2023-11-19T02:27:08;79.10;;;39.65;;
68310;SDS011;55157;51.036;17.058;2023-11-19T02:29:37;57.25;;;34.17;;
68310;SDS011;55157;51.036;17.058;2023-11-19T02:32:02;46.95;;;29.65;;
68310;SDS011;55157;51.036;17.058;2023-11-19T02:34:27;48.42;;;31.05;;
68310;SDS011;55157;51.036;17.058;2023-11-19T02:36:53;53.47;;;30.25;;
68310;SDS011;55157;51.036;17.058;2023-11-19T02:39:18;56.85;;;34.35;;
68310;SDS011;55157;51.036;17.058;2023-11-19T02:41:43;60.25;;;34.60;;
68310;SDS011;55157;51.036;17.058;2023-11-19T02:44:08;58.85;;;34.00;;
68310;SDS011;55157;51.036;17.058;2023-11-19T02:46:35;54.30;;;33.10;;
68310;SDS011;55157;51.036;17.058;2023-11-19T02:49:00;49.50;;;31.50;;
68310;SDS011;55157;51.036;17.058;2023-11-19T02:51:25;52.25;;;30.75;;
68310;SDS011;55157;51.036;17.058;2023-11-19T02:53:51;46.55;;;31.58;;
68310;SDS011;55157;51.036;17.058;2023-11-19T02:56:16;54.92;;;33.38;;
68310;SDS011;55157;51.036;17.058;2023-11-19T02:58:42;56.05;;;33.92;;
68310;SDS011;55157;51.036;17.058;2023-11-19T03:01:07;50.60;;;33.35;;
68310;SDS011;55157;51.036;17.058;2023-11-19T03:03:34;49.47;;;33.35;;
68310;SDS011;55157;51.036;17.058;2023-11-19T03:05:59;53.08;;;32.33;;
68310;SDS011;55157;51.036;17.058;2023-11-19T03:08:24;52.63;;;32.10;;
68310;SDS011;55157;51.036;17.058;2023-11-19T03:10:50;51.33;;;32.55;;
68310;SDS011;55157;51.036;17.058;2023-11-19T03:13:15;56.00;;;33.25;;
68310;SDS011;55157;51.036;17.058;2023-11-19T03:15:40;49.47;;;31.15;;
68310;SDS011;55157;51.036;17.058;2023-11-19T03:18:05;48.20;;;30.83;;
68310;SDS011;55157;51.036;17.058;2023-11-19T03:20:32;50.88;;;33.22;;
68310;SDS011;55157;51.036;17.058;2023-11-19T03:22:57;53.97;;;32.42;;
68310;SDS011;55157;51.036;17.058;2023-11-19T03:25:24;52.63;;;32.53;;
68310;SDS011;55157;51.036;17.058;2023-11-19T03:27:50;51.30;;;32.65;;
68310;SDS011;55157;51.036;17.058;2023-11-19T03:30:15;48.10;;;30.27;;
68310;SDS011;55157;51.036;17.058;2023-11-19T03:32:40;48.30;;;31.77;;
68310;SDS011;55157;51.036;17.058;2023-11-19T03:35:06;53.00;;;31.60;;
68310;SDS011;55157;51.036;17.058;2023-11-19T03:37:33;54.03;;;29.77;;
68310;SDS011;55157;51.036;17.058;2023-11-19T03:39:58;51.45;;;31.63;;
68310;SDS011;55157;51.036;17.058;2023-11-19T03:42:24;49.17;;;31.92;;
68310;SDS011;55157;51.036;17.058;2023-11-19T03:44:49;50.88;;;31.63;;
68310;SDS011;55157;51.036;17.058;2023-11-19T03:47:14;48.72;;;29.90;;
68310;SDS011;55157;51.036;17.058;2023-11-19T03:49:39;47.17;;;29.67;;
68310;SDS011;55157;51.036;17.058;2023-11-19T03:52:05;46.63;;;29.55;;
68310;SDS011;55157;51.036;17.058;2023-11-19T03:54:31;51.20;;;31.83;;
68310;SDS011;55157;51.036;17.058;2023-11-19T03:56:56;53.45;;;31.40;;
68310;SDS011;55157;51.036;17.058;2023-11-19T03:59:22;52.78;;;32.15;;
68310;SDS011;55157;51.036;17.058;2023-11-19T04:01:47;48.92;;;31.67;;
68310;SDS011;55157;51.036;17.058;2023-11-19T04:04:12;56.03;;;32.40;;
68310;SDS011;55157;51.036;17.058;2023-11-19T04:06:37;47.95;;;30.45;;
68310;SDS011;55157;51.036;17.058;2023-11-19T04:09:03;47.60;;;29.95;;
68310;SDS011;55157;51.036;17.058;2023-11-19T04:11:29;48.70;;;29.48;;
68310;SDS011;55157;51.036;17.058;2023-11-19T04:13:55;56.08;;;31.73;;
68310;SDS011;55157;51.036;17.058;2023-11-19T04:16:25;48.78;;;30.67;;
68310;SDS011;55157;51.036;17.058;2023-11-19T04:18:50;47.28;;;30.13;;
68310;SDS011;55157;51.036;17.058;2023-11-19T04:21:15;48.15;;;31.52;;
68310;SDS011;55157;51.036;17.058;2023-11-19T04:23:40;44.67;;;30.15;;
68310;SDS011;55157;51.036;17.058;2023-11-19T04:26:06;45.97;;;29.75;;
68310;SDS011;55157;51.036;17.058;2023-11-19T04:28:32;41.17;;;28.10;;
68310;SDS011;55157;51.036;17.058;2023-11-19T04:30:58;53.03;;;29.70;;
68310;SDS011;55157;51.036;17.058;2023-11-19T04:33:23;42.35;;;28.30;;
68310;SDS011;55157;51.036;17.058;2023-11-19T04:35:48;46.80;;;29.10;;
68310;SDS011;55157;51.036;17.058;2023-11-19T04:38:13;44.75;;;28.10;;
68310;SDS011;55157;51.036;17.058;2023-11-19T04:40:39;45.67;;;27.30;;
68310;SDS011;55157;51.036;17.058;2023-11-19T04:43:04;53.13;;;28.33;;
68310;SDS011;55157;51.036;17.058;2023-11-19T04:45:30;47.85;;;28.67;;
68310;SDS011;55157;51.036;17.058;2023-11-19T04:47:56;42.60;;;28.02;;
68310;SDS011;55157;51.036;17.058;2023-11-19T04:50:21;42.22;;;26.85;;
68310;SDS011;55157;51.036;17.058;2023-11-19T04:52:46;38.55;;;25.13;;
68310;SDS011;55157;51.036;17.058;2023-11-19T04:55:12;38.92;;;25.35;;
68310;SDS011;55157;51.036;17.058;2023-11-19T04:57:37;40.10;;;25.67;;
68310;SDS011;55157;51.036;17.058;2023-11-19T05:00:02;40.42;;;26.48;;
68310;SDS011;55157;51.036;17.058;2023-11-19T05:02:29;41.78;;;25.05;;
68310;SDS011;55157;51.036;17.058;2023-11-19T05:04:54;40.22;;;26.48;;
68310;SDS011;55157;51.036;17.058;2023-11-19T05:07:20;42.28;;;27.52;;
68310;SDS011;55157;51.036;17.058;2023-11-19T05:09:45;42.50;;;26.67;;
68310;SDS011;55157;51.036;17.058;2023-11-19T05:12:10;41.20;;;25.15;;
68310;SDS011;55157;51.036;17.058;2023-11-19T05:14:35;35.75;;;25.63;;
68310;SDS011;55157;51.036;17.058;2023-11-19T05:17:01;37.75;;;25.10;;
68310;SDS011;55157;51.036;17.058;2023-11-19T05:19:27;32.60;;;22.85;;
68310;SDS011;55157;51.036;17.058;2023-11-19T05:21:52;40.25;;;25.55;;
68310;SDS011;55157;51.036;17.058;2023-11-19T05:24:18;34.08;;;22.70;;
68310;SDS011;55157;51.036;17.058;2023-11-19T05:26:43;38.28;;;24.83;;
68310;SDS011;55157;51.036;17.058;2023-11-19T05:29:08;39.05;;;25.42;;
68310;SDS011;55157;51.036;17.058;2023-11-19T05:31:34;41.13;;;24.00;;
68310;SDS011;55157;51.036;17.058;2023-11-19T05:33:59;37.03;;;24.15;;
68310;SDS011;55157;51.036;17.058;2023-11-19T05:36:25;35.50;;;23.95;;
68310;SDS011;55157;51.036;17.058;2023-11-19T05:38:51;31.80;;;22.88;;
68310;SDS011;55157;51.036;17.058;2023-11-19T05:41:16;43.63;;;23.98;;
68310;SDS011;55157;51.036;17.058;2023-11-19T05:43:41;32.40;;;22.27;;
68310;SDS011;55157;51.036;17.058;2023-11-19T05:46:06;32.85;;;21.60;;
68310;SDS011;55157;51.036;17.058;2023-11-19T05:48:32;29.60;;;20.05;;
68310;SDS011;55157;51.036;17.058;2023-11-19T05:50:57;35.83;;;21.77;;
68310;SDS011;55157;51.036;17.058;2023-11-19T05:53:24;33.30;;;22.08;;
68310;SDS011;55157;51.036;17.058;2023-11-19T05:55:49;34.53;;;22.75;;
68310;SDS011;55157;51.036;17.058;2023-11-19T05:58:14;29.75;;;19.30;;
68310;SDS011;55157;51.036;17.058;2023-11-19T06:00:39;29.98;;;19.58;;
68310;SDS011;55157;51.036;17.058;2023-11-19T06:03:05;31.25;;;21.77;;
68310;SDS011;55157;51.036;17.058;2023-11-19T06:05:30;33.63;;;19.90;;
68310;SDS011;55157;51.036;17.058;2023-11-19T06:07:55;29.67;;;20.13;;
68310;SDS011;55157;51.036;17.058;2023-11-19T06:10:22;38.13;;;22.88;;
68310;SDS011;55157;51.036;17.058;2023-11-19T06:12:47;31.63;;;20.42;;
68310;SDS011;55157;51.036;17.058;2023-11-19T06:15:12;29.88;;;20.60;;
68310;SDS011;55157;51.036;17.058;2023-11-19T06:17:38;33.00;;;21.23;;
68310;SDS011;55157;51.036;17.058;2023-11-19T06:20:03;32.33;;;20.70;;
68310;SDS011;55157;51.036;17.058;2023-11-19T06:22:29;27.33;;;20.33;;
68310;SDS011;55157;51.036;17.058;2023-11-19T06:24:54;31.33;;;21.27;;
68310;SDS011;55157;51.036;17.058;2023-11-19T06:27:21;28.25;;;19.95;;
68310;SDS011;55157;51.036;17.058;2023-11-19T06:29:46;33.00;;;21.27;;
68310;SDS011;55157;51.036;17.058;2023-11-19T06:32:12;32.58;;;20.80;;
68310;SDS011;55157;51.036;17.058;2023-11-19T06:34:37;27.80;;;19.98;;
68310;SDS011;55157;51.036;17.058;2023-11-19T06:37:02;29.65;;;20.08;;
68310;SDS011;55157;51.036;17.058;2023-11-19T06:39:27;28.20;;;18.95;;
68310;SDS011;55157;51.036;17.058;2023-11-19T06:41:53;31.35;;;19.85;;
68310;SDS011;55157;51.036;17.058;2023-11-19T06:44:20;26.80;;;18.67;;
68310;SDS011;55157;51.036;17.058;2023-11-19T06:46:45;25.70;;;18.60;;
68310;SDS011;55157;51.036;17.058;2023-11-19T06:49:10;26.60;;;20.27;;
68310;SDS011;55157;51.036;17.058;2023-11-19T06:51:35;30.08;;;19.73;;
68310;SDS011;55157;51.036;17.058;2023-11-19T06:54:05;25.60;;;17.85;;
68310;SDS011;55157;51.036;17.058;2023-11-19T06:56:30;25.90;;;18.55;;
68310;SDS011;55157;51.036;17.058;2023-11-19T06:58:56;27.38;;;17.75;;
68310;SDS011;55157;51.036;17.058;2023-11-19T07:01:22;26.15;;;16.55;;
68310;SDS011;55157;51.036;17.058;2023-11-19T07:03:48;25.13;;;18.50;;
68310;SDS011;55157;51.036;17.058;2023-11-19T07:06:13;24.88;;;16.17;;
68310;SDS011;55157;51.036;17.058;2023-11-19T07:08:39;23.90;;;17.33;;
68310;SDS011;55157;51.036;17.058;2023-11-19T07:11:04;25.35;;;17.05;;
68310;SDS011;55157;51.036;17.058;2023-11-19T07:13:29;28.77;;;17.60;;
68310;SDS011;55157;51.036;17.058;2023-11-19T07:15:55;27.25;;;17.40;;
68310;SDS011;55157;51.036;17.058;2023-11-19T07:18:22;28.77;;;18.20;;
68310;SDS011;55157;51.036;17.058;2023-11-19T07:20:47;23.00;;;16.75;;
68310;SDS011;55157;51.036;17.058;2023-11-19T07:23:12;27.50;;;17.92;;
68310;SDS011;55157;51.036;17.058;2023-11-19T07:25:37;22.92;;;15.95;;
68310;SDS011;55157;51.036;17.058;2023-11-19T07:28:03;23.92;;;17.63;;
68310;SDS011;55157;51.036;17.058;2023-11-19T07:30:28;22.38;;;16.70;;
68310;SDS011;55157;51.036;17.058;2023-11-19T07:32:53;21.80;;;16.08;;
68310;SDS011;55157;51.036;17.058;2023-11-19T07:35:20;25.63;;;16.55;;
68310;SDS011;55157;51.036;17.058;2023-11-19T07:37:45;23.67;;;17.40;;
68310;SDS011;55157;51.036;17.058;2023-11-19T07:40:11;24.85;;;17.27;;
68310;SDS011;55157;51.036;17.058;2023-11-19T07:42:36;23.45;;;17.15;;
68310;SDS011;55157;51.036;17.058;2023-11-19T07:45:01;25.35;;;17.73;;
68310;SDS011;55157;51.036;17.058;2023-11-19T07:47:27;24.05;;;16.58;;
68310;SDS011;55157;51.036;17.058;2023-11-19T07:49:52;21.38;;;15.73;;
68310;SDS011;55157;51.036;17.058;2023-11-19T07:52:18;22.77;;;16.90;;
68310;SDS011;55157;51.036;17.058;2023-11-19T07:54:44;24.63;;;15.70;;
68310;SDS011;55157;51.036;17.058;2023-11-19T07:57:09;23.85;;;15.77;;
68310;SDS011;55157;51.036;17.058;2023-11-19T07:59:34;23.10;;;16.27;;
68310;SDS011;55157;51.036;17.058;2023-11-19T08:01:59;23.30;;;15.82;;
68310;SDS011;55157;51.036;17.058;2023-11-19T08:04:25;22.55;;;15.40;;
68310;SDS011;55157;51.036;17.058;2023-11-19T08:06:50;21.77;;;15.18;;
68310;SDS011;55157;51.036;17.058;2023-11-19T08:09:17;23.67;;;15.48;;
68310;SDS011;55157;51.036;17.058;2023-11-19T08:11:42;22.55;;;15.80;;
68310;SDS011;55157;51.036;17.058;2023-11-19T08:14:07;25.08;;;16.50;;
68310;SDS011;55157;51.036;17.058;2023-11-19T08:16:33;25.63;;;17.30;;
68310;SDS011;55157;51.036;17.058;2023-11-19T08:18:58;24.90;;;17.80;;
68310;SDS011;55157;51.036;17.058;2023-11-19T08:21:23;25.92;;;18.60;;
68310;SDS011;55157;51.036;17.058;2023-11-19T08:23:49;23.27;;;17.40;;
68310;SDS011;55157;51.036;17.058;2023-11-19T08:26:15;22.95;;;16.42;;
68310;SDS011;55157;51.036;17.058;2023-11-19T08:28:41;23.63;;;16.52;;
68310;SDS011;55157;51.036;17.058;2023-11-19T08:31:06;25.52;;;18.02;;
68310;SDS011;55157;51.036;17.058;2023-11-19T08:33:31;26.42;;;17.67;;
68310;SDS011;55157;51.036;17.058;2023-11-19T08:35:57;26.42;;;19.10;;
68310;SDS011;55157;51.036;17.058;2023-11-19T08:38:22;29.08;;;18.67;;
68310;SDS011;55157;51.036;17.058;2023-11-19T08:40:47;27.55;;;19.95;;
68310;SDS011;55157;51.036;17.058;2023-11-19T08:43:14;28.30;;;19.48;;
68310;SDS011;55157;51.036;17.058;2023-11-19T08:45:39;28.95;;;19.00;;
68310;SDS011;55157;51.036;17.058;2023-11-19T08:48:04;30.67;;;20.27;;
68310;SDS011;55157;51.036;17.058;2023-11-19T08:50:30;28.42;;;18.73;;
68310;SDS011;55157;51.036;17.058;2023-11-19T08:52:55;27.52;;;16.98;;
68310;SDS011;55157;51.036;17.058;2023-11-19T08:55:20;27.17;;;16.80;;
68310;SDS011;55157;51.036;17.058;2023-11-19T08:57:46;22.77;;;16.38;;
68310;SDS011;55157;51.036;17.058;2023-11-19T09:00:12;26.38;;;17.58;;
68310;SDS011;55157;51.036;17.058;2023-11-19T09:02:38;23.17;;;16.48;;
68310;SDS011;55157;51.036;17.058;2023-11-19T09:05:03;27.80;;;18.33;;
68310;SDS011;55157;51.036;17.058;2023-11-19T09:07:29;30.17;;;18.15;;
68310;SDS011;55157;51.036;17.058;2023-11-19T09:09:54;25.50;;;17.40;;
68310;SDS011;55157;51.036;17.058;2023-11-19T09:12:19;26.92;;;17.85;;
68310;SDS011;55157;51.036;17.058;2023-11-19T09:14:44;25.60;;;16.58;;
68310;SDS011;55157;51.036;17.058;2023-11-19T09:17:11;26.13;;;17.13;;
68310;SDS011;55157;51.036;17.058;2023-11-19T09:19:36;27.42;;;16.42;;
68310;SDS011;55157;51.036;17.058;2023-11-19T09:22:01;24.45;;;15.55;;
68310;SDS011;55157;51.036;17.058;2023-11-19T09:24:27;18.75;;;14.40;;
68310;SDS011;55157;51.036;17.058;2023-11-19T09:26:52;23.30;;;14.38;;
68310;SDS011;55157;51.036;17.058;2023-11-19T09:29:17;19.92;;;13.23;;
68310;SDS011;55157;51.036;17.058;2023-11-19T09:31:42;20.95;;;13.98;;
68310;SDS011;55157;51.036;17.058;2023-11-19T09:34:09;20.05;;;13.93;;
68310;SDS011;55157;51.036;17.058;2023-11-19T09:36:34;19.40;;;14.43;;
68310;SDS011;55157;51.036;17.058;2023-11-19T09:39:00;24.75;;;14.80;;
68310;SDS011;55157;51.036;17.058;2023-11-19T09:41:25;23.05;;;14.45;;
68310;SDS011;55157;51.036;17.058;2023-11-19T09:43:50;25.25;;;15.63;;
68310;SDS011;55157;51.036;17.058;2023-11-19T09:46:16;22.63;;;15.90;;
68310;SDS011;55157;51.036;17.058;2023-11-19T09:48:41;27.20;;;18.25;;
68310;SDS011;55157;51.036;17.058;2023-11-19T09:51:09;25.98;;;17.33;;
68310;SDS011;55157;51.036;17.058;2023-11-19T09:53:34;24.85;;;16.80;;
68310;SDS011;55157;51.036;17.058;2023-11-19T09:56:00;28.45;;;17.70;;
68310;SDS011;55157;51.036;17.058;2023-11-19T09:58:26;27.83;;;18.65;;
68310;SDS011;55157;51.036;17.058;2023-11-19T10:00:51;35.03;;;22.20;;
68310;SDS011;55157;51.036;17.058;2023-11-19T10:03:16;25.60;;;16.95;;
68310;SDS011;55157;51.036;17.058;2023-11-19T10:05:42;25.65;;;16.80;;
68310;SDS011;55157;51.036;17.058;2023-11-19T10:08:08;32.17;;;19.75;;
68310;SDS011;55157;51.036;17.058;2023-11-19T10:10:34;29.70;;;19.70;;
68310;SDS011;55157;51.036;17.058;2023-11-19T10:12:59;30.95;;;19.63;;
68310;SDS011;55157;51.036;17.058;2023-11-19T10:15:25;31.33;;;19.92;;
68310;SDS011;55157;51.036;17.058;2023-11-19T10:17:51;26.98;;;15.38;;
68310;SDS011;55157;51.036;17.058;2023-11-19T10:20:16;21.27;;;15.55;;
68310;SDS011;55157;51.036;17.058;2023-11-19T10:22:41;37.75;;;20.17;;
68310;SDS011;55157;51.036;17.058;2023-11-19T10:25:10;29.52;;;17.40;;
68310;SDS011;55157;51.036;17.058;2023-11-19T10:27:46;24.83;;;14.05;;
68310;SDS011;55157;51.036;17.058;2023-11-19T10:30:11;27.75;;;16.63;;
68310;SDS011;55157;51.036;17.058;2023-11-19T10:32:37;22.52;;;15.82;;
68310;SDS011;55157;51.036;17.058;2023-11-19T10:35:05;21.33;;;15.60;;
68310;SDS011;55157;51.036;17.058;2023-11-19T10:37:30;21.35;;;14.27;;
68310;SDS011;55157;51.036;17.058;2023-11-19T10:39:55;22.25;;;14.52;;
68310;SDS011;55157;51.036;17.058;2023-11-19T10:42:22;20.83;;;14.68;;
68310;SDS011;55157;51.036;17.058;2023-11-19T10:44:47;18.45;;;12.88;;
68310;SDS011;55157;51.036;17.058;2023-11-19T10:47:13;22.65;;;14.98;;
68310;SDS011;55157;51.036;17.058;2023-11-19T10:49:38;18.42;;;13.80;;
68310;SDS011;55157;51.036;17.058;2023-11-19T10:52:04;20.38;;;12.65;;
68310;SDS011;55157;51.036;17.058;2023-11-19T10:54:30;27.27;;;12.52;;
68310;SDS011;55157;51.036;17.058;2023-11-19T10:56:58;31.75;;;15.75;;
68310;SDS011;55157;51.036;17.058;2023-11-19T10:59:25;23.65;;;10.85;;
68310;SDS011;55157;51.036;17.058;2023-11-19T11:01:53;105.85;;;39.30;;
68310;SDS011;55157;51.036;17.058;2023-11-19T11:04:19;38.55;;;13.90;;
68310;SDS011;55157;51.036;17.058;2023-11-19T11:06:47;26.35;;;11.43;;
68310;SDS011;55157;51.036;17.058;2023-11-19T11:09:13;15.60;;;7.15;;
68310;SDS011;55157;51.036;17.058;2023-11-19T11:11:38;122.82;;;46.25;;
68310;SDS011;55157;51.036;17.058;2023-11-19T11:14:04;31.38;;;14.38;;
68310;SDS011;55157;51.036;17.058;2023-11-19T11:16:31;41.03;;;13.48;;
68310;SDS011;55157;51.036;17.058;2023-11-19T11:18:56;45.17;;;16.52;;
68310;SDS011;55157;51.036;17.058;2023-11-19T11:21:22;34.03;;;13.88;;
68310;SDS011;55157;51.036;17.058;2023-11-19T11:26:51;23.60;;;11.38;;
68310;SDS011;55157;51.036;17.058;2023-11-19T11:29:20;25.08;;;12.23;;
68310;SDS011;55157;51.036;17.058;2023-11-19T11:31:53;20.92;;;10.40;;
68310;SDS011;55157;51.036;17.058;2023-11-19T11:34:29;29.85;;;14.40;;
68310;SDS011;55157;51.036;17.058;2023-11-19T11:36:58;20.10;;;11.23;;
68310;SDS011;55157;51.036;17.058;2023-11-19T11:39:27;22.83;;;8.85;;
68310;SDS011;55157;51.036;17.058;2023-11-19T11:47:19;23.02;;;12.55;;
68310;SDS011;55157;51.036;17.058;2023-11-19T11:49:44;22.30;;;10.80;;
68310;SDS011;55157;51.036;17.058;2023-11-19T11:52:09;18.60;;;11.30;;
68310;SDS011;55157;51.036;17.058;2023-11-19T11:54:34;101.32;;;44.83;;
68310;SDS011;55157;51.036;17.058;2023-11-19T11:57:03;23.90;;;12.27;;
68310;SDS011;55157;51.036;17.058;2023-11-19T11:59:31;21.00;;;12.15;;
68310;SDS011;55157;51.036;17.058;2023-11-19T12:01:57;21.27;;;11.60;;
68310;SDS011;55157;51.036;17.058;2023-11-19T12:04:26;22.45;;;13.80;;
68310;SDS011;55157;51.036;17.058;2023-11-19T12:07:02;21.50;;;12.48;;
68310;SDS011;55157;51.036;17.058;2023-11-19T12:09:28;22.67;;;12.65;;
68310;SDS011;55157;51.036;17.058;2023-11-19T12:12:00;20.85;;;11.10;;
68310;SDS011;55157;51.036;17.058;2023-11-19T12:19:53;22.70;;;12.57;;
68310;SDS011;55157;51.036;17.058;2023-11-19T12:22:19;24.33;;;14.80;;
68310;SDS011;55157;51.036;17.058;2023-11-19T12:24:44;31.30;;;16.80;;
68310;SDS011;55157;51.036;17.058;2023-11-19T12:27:09;32.30;;;20.05;;
68310;SDS011;55157;51.036;17.058;2023-11-19T12:29:41;29.63;;;19.83;;
68310;SDS011;55157;51.036;17.058;2023-11-19T12:32:06;23.67;;;15.30;;
68310;SDS011;55157;51.036;17.058;2023-11-19T12:34:32;42.85;;;32.08;;
68310;SDS011;55157;51.036;17.058;2023-11-19T12:36:58;66.85;;;36.40;;
68310;SDS011;55157;51.036;17.058;2023-11-19T12:39:29;69.63;;;39.55;;
68310;SDS011;55157;51.036;17.058;2023-11-19T12:41:54;90.43;;;53.42;;
68310;SDS011;55157;51.036;17.058;2023-11-19T12:44:20;126.03;;;61.47;;
68310;SDS011;55157;51.036;17.058;2023-11-19T12:46:45;88.43;;;38.65;;
68310;SDS011;55157;51.036;17.058;2023-11-19T12:49:11;213.40;;;97.28;;
68310;SDS011;55157;51.036;17.058;2023-11-19T12:51:36;218.93;;;95.57;;
68310;SDS011;55157;51.036;17.058;2023-11-19T12:54:03;183.43;;;84.55;;
68310;SDS011;55157;51.036;17.058;2023-11-19T12:56:28;246.57;;;125.55;;
68310;SDS011;55157;51.036;17.058;2023-11-19T12:58:53;184.25;;;91.82;;
68310;SDS011;55157;51.036;17.058;2023-11-19T13:01:19;189.27;;;90.60;;
68310;SDS011;55157;51.036;17.058;2023-11-19T13:03:45;109.00;;;51.92;;
68310;SDS011;55157;51.036;17.058;2023-11-19T13:06:11;115.32;;;54.15;;
68310;SDS011;55157;51.036;17.058;2023-11-19T13:08:37;89.63;;;43.47;;
68310;SDS011;55157;51.036;17.058;2023-11-19T13:11:04;248.98;;;85.15;;
68310;SDS011;55157;51.036;17.058;2023-11-19T13:13:30;291.17;;;89.55;;
68310;SDS011;55157;51.036;17.058;2023-11-19T13:16:01;155.68;;;52.88;;
68310;SDS011;55157;51.036;17.058;2023-11-19T13:18:26;255.65;;;86.45;;
68310;SDS011;55157;51.036;17.058;2023-11-19T13:20:51;243.38;;;82.40;;
68310;SDS011;55157;51.036;17.058;2023-11-19T13:23:16;219.73;;;83.65;;
68310;SDS011;55157;51.036;17.058;2023-11-19T13:25:42;234.23;;;84.82;;
68310;SDS011;55157;51.036;17.058;2023-11-19T13:28:08;283.88;;;95.68;;
68310;SDS011;55157;51.036;17.058;2023-11-19T13:30:34;298.63;;;98.03;;
68310;SDS011;55157;51.036;17.058;2023-11-19T13:32:59;295.83;;;96.88;;
68310;SDS011;55157;51.036;17.058;2023-11-19T13:35:24;219.30;;;73.75;;
68310;SDS011;55157;51.036;17.058;2023-11-19T13:37:49;242.13;;;80.13;;
68310;SDS011;55157;51.036;17.058;2023-11-19T13:40:15;222.07;;;69.97;;
68310;SDS011;55157;51.036;17.058;2023-11-19T13:42:40;184.45;;;63.33;;
68310;SDS011;55157;51.036;17.058;2023-11-19T13:45:07;129.60;;;51.90;;
68310;SDS011;55157;51.036;17.058;2023-11-19T13:47:32;75.78;;;35.25;;
68310;SDS011;55157;51.036;17.058;2023-11-19T13:49:57;51.85;;;25.10;;
68310;SDS011;55157;51.036;17.058;2023-11-19T13:52:23;46.53;;;25.80;;
68310;SDS011;55157;51.036;17.058;2023-11-19T13:54:48;33.00;;;17.50;;
68310;SDS011;55157;51.036;17.058;2023-11-19T13:57:15;19.67;;;10.00;;
68310;SDS011;55157;51.036;17.058;2023-11-19T13:59:40;31.63;;;16.48;;
68310;SDS011;55157;51.036;17.058;2023-11-19T14:02:07;15.20;;;9.25;;
68310;SDS011;55157;51.036;17.058;2023-11-19T14:04:32;15.68;;;6.82;;
68310;SDS011;55157;51.036;17.058;2023-11-19T14:06:57;13.52;;;6.28;;
68310;SDS011;55157;51.036;17.058;2023-11-19T14:09:23;13.10;;;6.90;;
68310;SDS011;55157;51.036;17.058;2023-11-19T14:11:48;32.38;;;13.55;;
68310;SDS011;55157;51.036;17.058;2023-11-19T14:14:13;20.10;;;9.55;;
68310;SDS011;55157;51.036;17.058;2023-11-19T14:16:38;16.13;;;6.43;;